NEODyS-2

Near Earth Objects - Dynamic Site
NEODyS ∴ Observatories ∴ Site 691 ∴ Obs & residuals
Contact »
691  ▹ 
OBSERVATIONS AND RESIDUALS

691-Steward Observatory, Kitt Peak-Spacewatch

Detections | Residuals | Detections & Residuals

[1-200] [201-400] [401-600] [601-800] [801-1000] [1001-1200] [1201-1400] [1401-1600] [1601-1800] [1801-2000] [2001-2200] [2201-2400] [2401-2600] [2601-2800] [2801-3000] [3001-3200] [3201-3400] [3401-3600] [3601-3800] [3801-4000] [4001-4200] [4201-4400] [4401-4600] [4601-4800] [4801-5000] [5001-5200] [5201-5400] [5401-5600] [5601-5800] [5801-6000] [6001-6200] [6201-6400] [6401-6600] [6601-6800] [6801-7000] [7001-7200] [7201-7400] [7401-7600] [7601-7800] [7801-8000] [8001-8200] [8201-8400] [8401-8600] [8601-8800] [8801-9000] [9001-9200] [9201-9400] [9401-9600] [9601-9800] [9801-10000] [10001-10200] [10201-10400] [10401-10600] [10601-10800] [10801-11000] [11001-11200] [11201-11400] [11401-11600] [11601-11800] [11801-12000] [12001-12200] [12201-12400] [12401-12600] [12601-12800] [12801-13000] [13001-13200] [13201-13400] [13401-13600] [13601-13800] [13801-14000] [14001-14200] [14201-14400] [14401-14600] [14601-14800] [14801-15000] [15001-15200] [15201-15400] [15401-15600] [15601-15800] [15801-16000] [16001-16200] [16201-16400] [16401-16600] [16601-16800] [16801-17000] [17001-17200] [17201-17400] [17401-17600] [17601-17800] [17801-18000] [18001-18200] [18201-18400] [18401-18600] [18601-18800] [18801-19000] [19001-19200] [19201-19400] [19401-19600] [19601-19800] [19801-20000] [20001-20200] [20201-20400] [20401-20600] [20601-20800] [20801-21000] [21001-21200] [21201-21400] [21401-21600] [21601-21800] [21801-22000] [22001-22200] [22201-22400] [22401-22600] [22601-22800] [22801-23000] [23001-23200] [23201-23400] [23401-23600] [23601-23800] [23801-24000] [24001-24200] [24201-24400] [24401-24600] [24601-24800] [24801-25000] [25001-25200] [25201-25400] [25401-25600] [25601-25800] [25801-26000] [26001-26200] [26201-26400] [26401-26600] [26601-26800] [26801-27000] [27001-27200] [27201-27400] [27401-27600] [27601-27800] [27801-28000] [28001-28200] [28201-28400] [28401-28600] [28601-28800] [28801-29000] [29001-29200] [29201-29400] [29401-29600] [29601-29800] [29801-30000] [30001-30200] [30201-30400] [30401-30600] [30601-30800] [30801-31000] [31001-31200] [31201-31400] [31401-31600] [31601-31800] [31801-32000] [32001-32200] [32201-32400] [32401-32600] [32601-32800] [32801-33000] [33001-33200] [33201-33400] [33401-33600] [33601-33800] [33801-34000] [34001-34200] [34201-34400] [34401-34600] [34601-34800] [34801-35000] [35001-35200] [35201-35400] [35401-35600] [35601-35800] [35801-36000] [36001-36200] [36201-36400] [36401-36600] [36601-36800] [36801-37000] [37001-37200] [37201-37400] [37401-37600] [37601-37800] [37801-38000] [38001-38200] [38201-38400] [38401-38600] [38601-38800] [38801-39000] [39001-39200] [39201-39400] [39401-39600] [39601-39800] [39801-40000] [40001-40200] [40201-40400] [40401-40600] [40601-40800] [40801-41000] [41001-41200] [41201-41400] [41401-41600] [41601-41800] [41801-42000] [42001-42200] [42201-42400] [42401-42600] [42601-42800] [42801-43000] [43001-43200] [43201-43400] [43401-43600] [43601-43800] [43801-44000] [44001-44200] [44201-44400] [44401-44600] [44601-44800] [44801-45000] [45001-45200] [45201-45400] [45401-45600] [45601-45800] [45801-46000] [46001-46200] [46201-46400] [46401-46600] [46601-46800] [46801-47000] [47001-47200] [47201-47400] [47401-47600] [47601-47800] [47801-48000] [48001-48200] [48201-48400] [48401-48600] [48601-48800] [48801-49000] [49001-49200] [49201-49400] [49401-49600] [49601-49800] [49801-50000] [50001-50200] [50201-50388]

Designation T Tech N Date Right Ascension Declination Apparent Magnitude Star Catalog Site code χ Used A Used M
yr-mo-day precision hr:min:sec precision rms F bias residual deg min sec precision rms F bias residual mag/col rms residual
2019TJ5 O C K 2019-10-11.18882 1.000E-05 02:13:22.090 1.500E-01 0.500 F -0.074 -0.099 +10° 44' 28.00" 1.000E-01 0.500 F 0.230 -0.231 19.3 R 0.70 0.21 o 691 0.53 Yes Yes
2019TK5 O C K 2019-10-11.19455 1.000E-05 01:57:02.560 1.500E-01 0.500 F -0.106 -0.474 +28° 48' 58.30" 1.000E-01 0.500 F 0.186 -0.073 20.7 R 0.70 0.31 o 691 0.97 Yes Yes
2010UH7 O C 2019-10-11.19455 1.000E-05 01:59:39.710 1.500E-01 0.500 F -0.173 -0.064 +28° 14' 03.60" 1.000E-01 0.500 F 0.210 -0.229 18.1 V 0.70 0.13 o 691 0.48 Yes Yes
2019TJ5 O C K 2019-10-11.20137 1.000E-05 02:13:28.270 1.500E-01 0.500 F -0.074 -1.004 +10° 47' 36.90" 1.000E-01 0.500 F 0.230 -0.355 19.1 R 0.70 0.00 o 691 2.21 Yes Yes
2019TK5 O C K 2019-10-11.20705 1.000E-05 01:57:04.130 1.500E-01 0.500 F -0.106 -1.496 +28° 50' 10.80" 1.000E-01 0.500 F 0.186 -0.775 o 691 3.33 No No
2010UH7 O C 2019-10-11.20980 1.000E-05 01:59:38.900 1.500E-01 0.500 F -0.173 -0.141 +28° 14' 55.80" 1.000E-01 0.500 F 0.210 -0.050 18.0 V 0.70 0.03 o 691 0.30 Yes Yes
2019TJ5 O C K 2019-10-11.21387 1.000E-05 02:13:34.330 1.500E-01 0.500 F -0.074 -1.115 +10° 50' 43.50" 1.000E-01 0.500 F 0.230 -0.448 19.1 R 0.70 -0.01 o 691 2.49 Yes Yes
2019TK5 O C K 2019-10-11.21958 1.000E-05 01:57:05.720 1.500E-01 0.500 F -0.106 -1.146 +28° 51' 23.90" 1.000E-01 0.500 F 0.186 -0.716 21.0 R 0.70 0.62 o 691 2.74 Yes Yes
2010UH7 O C 2019-10-11.22509 1.000E-05 01:59:38.090 1.500E-01 0.500 F -0.173 -0.012 +28° 15' 47.60" 1.000E-01 0.500 F 0.210 -0.313 18.0 V 0.70 0.03 o 691 0.63 Yes Yes
2019QZ1 O C K 2019-10-11.35990 1.000E-05 06:38:42.500 1.500E-01 0.500 F 0.001 0.085 +27° 46' 06.50" 1.000E-01 0.500 F 0.099 0.003 o 691 0.24 Yes No
2019QZ1 O C K 2019-10-11.37779 1.000E-05 06:38:37.570 1.500E-01 0.500 F 0.001 -0.111 +27° 46' 10.80" 1.000E-01 0.500 F 0.099 0.219 20.4 R 0.70 -0.14 o 691 0.68 Yes Yes
2012TP139 O C K 2019-10-17.11770 1.000E-05 19:38:38.020 1.500E-01 0.500 F -0.140 0.095 -15° 41' 45.30" 1.000E-01 0.500 F 0.096 -0.095 o 691 0.29 Yes No
2019TO O C K 2019-10-17.12924 1.000E-05 21:39:02.910 1.500E-01 0.500 F -0.078 -0.001 -10° 51' 11.40" 1.000E-01 0.500 F 0.358 1.008 o 691 2.07 Yes No
2012TP139 O C K 2019-10-17.13449 1.000E-05 19:38:45.230 1.500E-01 0.500 F -0.140 0.342 -15° 41' 28.10" 1.000E-01 0.500 F 0.096 0.399 o 691 1.12 Yes No
2019TO O C K 2019-10-17.14608 1.000E-05 21:39:05.210 1.500E-01 0.500 F -0.088 -0.050 -10° 52' 35.00" 1.000E-01 0.500 F 0.311 0.068 o 691 0.17 Yes No
2012TP139 O C K 2019-10-17.15131 1.000E-05 19:38:52.440 1.500E-01 0.500 F -0.140 0.354 -15° 41' 11.60" 1.000E-01 0.500 F 0.096 0.109 o 691 0.81 Yes No
2019TP1 O C K 2019-10-17.16803 1.000E-05 23:15:13.520 1.500E-01 0.500 F -0.150 -0.194 -05° 43' 59.60" 1.000E-01 0.500 F 0.259 0.914 20.3 R 0.70 -0.92 o 691 1.88 Yes Yes
2019TP1 O C K 2019-10-17.17733 1.000E-05 23:15:11.880 1.500E-01 0.500 F -0.150 -0.128 -05° 43' 46.80" 1.000E-01 0.500 F 0.259 0.248 21.1 R 0.70 -0.12 o 691 0.56 Yes Yes
2019TP1 O C K 2019-10-17.18664 1.000E-05 23:15:10.250 1.500E-01 0.500 F -0.150 0.118 -05° 43' 33.40" 1.000E-01 0.500 F 0.259 0.161 21.1 R 0.70 -0.12 o 691 0.40 Yes Yes
2019SE9 O C K 2019-10-17.19694 1.000E-05 00:22:33.910 1.500E-01 0.500 F -0.167 0.051 +03° 23' 00.20" 1.000E-01 0.500 F 0.292 0.262 19.9 R 0.70 0.60 o 691 0.54 Yes Yes
2019SK7 O C K 2019-10-17.20165 1.000E-05 00:31:39.110 1.500E-01 0.500 F -0.344 0.178 -06° 05' 19.40" 1.000E-01 0.500 F 0.318 0.261 19.9 R 0.70 -0.15 o 691 0.66 Yes Yes
2019TR2 O C K 2019-10-17.20858 1.000E-05 00:06:18.270 1.500E-01 0.500 F -0.212 0.229 -08° 38' 52.20" 1.000E-01 0.500 F 0.206 -0.288 19.8 R 0.70 0.29 o 691 0.74 Yes Yes
2019SE9 O C K 2019-10-17.21313 1.000E-05 00:22:40.190 1.500E-01 0.500 F -0.167 -0.234 +03° 22' 32.90" 1.000E-01 0.500 F 0.292 -0.111 19.5 R 0.70 0.20 o 691 0.53 Yes Yes
2019SK7 O C K 2019-10-17.21784 1.000E-05 00:31:36.040 1.500E-01 0.500 F -0.344 -0.115 -06° 07' 04.60" 1.000E-01 0.500 F 0.318 -0.100 20.1 R 0.70 0.05 o 691 0.32 Yes Yes
2019TR2 O C K 2019-10-17.22477 1.000E-05 00:06:11.050 1.500E-01 0.500 F -0.212 -0.219 -08° 37' 52.10" 1.000E-01 0.500 F 0.206 -0.022 19.7 R 0.70 0.19 o 691 0.45 Yes Yes
2019SE9 O C K 2019-10-17.22932 1.000E-05 00:22:46.450 1.500E-01 0.500 F -0.167 -0.327 +03° 22' 06.20" 1.000E-01 0.500 F 0.292 0.169 19.7 R 0.70 0.40 o 691 0.75 Yes Yes
2019TR2 O C K 2019-10-17.24095 1.000E-05 00:06:03.830 1.500E-01 0.500 F -0.212 -0.431 -08° 36' 51.70" 1.000E-01 0.500 F 0.206 0.325 19.3 R 0.70 -0.21 o 691 1.09 Yes Yes
2019TQ2 O C K 2019-10-17.24697 1.000E-05 00:53:08.610 1.500E-01 0.500 F -0.213 0.032 +05° 07' 23.70" 1.000E-01 0.500 F 0.250 -0.011 19.5 R 0.70 0.05 o 691 0.07 Yes Yes
2019SV8 O C K 2019-10-17.25174 1.000E-05 00:14:05.320 1.500E-01 0.500 F -0.073 0.146 +28° 54' 16.60" 1.000E-01 0.500 F 0.227 -0.263 20.5 R 0.70 0.39 o 691 0.61 Yes Yes
2019SJ8 O C K 2019-10-17.26096 1.000E-05 01:51:35.330 1.500E-01 0.500 F -0.402 0.117 -09° 28' 58.80" 1.000E-01 0.500 F 0.173 -0.071 17.2 R 0.70 -0.49 o 691 0.28 Yes Yes
2019TQ2 O C K 2019-10-17.26385 1.000E-05 00:53:09.870 1.500E-01 0.500 F -0.213 -0.228 +05° 10' 20.40" 1.000E-01 0.500 F 0.250 0.255 19.7 R 0.70 0.26 o 691 0.70 Yes Yes
2019SV8 O C K 2019-10-17.26914 1.000E-05 00:14:00.340 1.500E-01 0.500 F -0.073 -0.183 +28° 54' 29.30" 1.000E-01 0.500 F 0.227 0.209 20.2 R 0.70 0.09 o 691 0.56 Yes Yes
2019SJ8 O C K 2019-10-17.27895 1.000E-05 01:51:58.260 1.500E-01 0.500 F -0.402 0.359 -09° 33' 53.20" 1.000E-01 0.500 F 0.173 -0.036 17.8 R 0.70 0.11 o 691 0.75 Yes Yes
2019TQ2 O C K 2019-10-17.28206 1.000E-05 00:53:11.250 1.500E-01 0.500 F -0.213 -0.167 +05° 13' 31.20" 1.000E-01 0.500 F 0.250 0.208 19.5 R 0.70 0.06 o 691 0.54 Yes Yes
2019SV8 O C K 2019-10-17.28727 1.000E-05 00:13:55.190 1.500E-01 0.500 F -0.073 -0.006 +28° 54' 41.70" 1.000E-01 0.500 F 0.227 -0.015 20.2 R 0.70 0.09 o 691 0.03 Yes Yes
2019SJ8 O C K 2019-10-17.29720 1.000E-05 01:52:21.530 1.500E-01 0.500 F -0.349 0.613 -09° 38' 52.10" 1.000E-01 0.500 F 0.176 -0.290 17.8 R 0.70 0.11 o 691 1.40 Yes Yes
2019TA2 O C K 2019-10-17.30029 1.000E-05 00:31:17.030 1.500E-01 0.500 F -0.391 -0.083 -15° 43' 20.50" 1.000E-01 0.500 F 0.372 -0.441 20.0 R 0.70 0.09 o 691 0.93 Yes Yes
2019TL O C K 2019-10-17.31044 1.000E-05 23:14:01.810 1.500E-01 0.500 F -0.055 -0.178 -02° 33' 36.30" 1.000E-01 0.500 F 0.292 0.463 20.0 R 0.70 -0.12 o 691 1.02 Yes Yes
2019SV5 O C K 2019-10-17.31605 1.000E-05 23:19:35.190 1.500E-01 0.500 F -0.162 0.034 +00° 42' 06.00" 1.000E-01 0.500 F 0.450 0.042 20.5 R 0.70 0.11 o 691 0.11 Yes Yes
2019TA2 O C K 2019-10-17.32180 1.000E-05 00:31:00.760 1.500E-01 0.500 F -0.391 0.299 -15° 42' 19.40" 1.000E-01 0.500 F 0.372 -0.685 20.2 R 0.70 0.29 o 691 1.56 Yes Yes
2019TL O C K 2019-10-17.33182 1.000E-05 23:14:13.720 1.500E-01 0.500 F -0.116 -0.506 -02° 34' 11.10" 1.000E-01 0.500 F 0.216 0.595 20.1 R 0.70 -0.02 o 691 1.60 Yes Yes
2019SV5 O C K 2019-10-17.33743 1.000E-05 23:19:36.480 1.500E-01 0.500 F -0.162 -0.265 +00° 43' 04.70" 1.000E-01 0.500 F 0.450 -0.397 21.0 R 0.70 0.61 o 691 0.97 Yes Yes
2019TA2 O C K 2019-10-17.34310 1.000E-05 00:30:44.660 1.500E-01 0.500 F -0.391 0.292 -15° 41' 17.30" 1.000E-01 0.500 F 0.372 -0.029 20.8 R 0.70 0.89 o 691 0.62 Yes Yes
2019TL O C K 2019-10-17.35311 1.000E-05 23:14:25.730 1.500E-01 0.500 F -0.116 0.337 -02° 34' 46.40" 1.000E-01 0.500 F 0.216 -0.072 20.3 R 0.70 0.18 o 691 0.71 Yes Yes
2019SV5 O C K 2019-10-17.35871 1.000E-05 23:19:37.810 1.500E-01 0.500 F -0.162 -0.195 +00° 44' 03.40" 1.000E-01 0.500 F 0.450 -0.531 21.0 R 0.70 0.61 o 691 1.15 Yes Yes
2019TB4 O C K 2019-10-17.36603 1.000E-05 00:57:39.000 1.500E-01 0.500 F -0.266 -0.100 -00° 11' 57.30" 1.000E-01 0.500 F 0.198 -0.243 o 691 0.57 Yes No
2019SU3 O C K 2019-10-17.37290 1.000E-05 01:12:22.960 1.500E-01 0.500 F -0.200 -0.479 +21° 28' 20.10" 1.000E-01 0.500 F 0.363 -0.117 o 691 1.00 Yes No
2018PK21 O C K 2019-10-17.37921 1.000E-05 23:50:58.070 1.500E-01 0.500 F -0.112 0.023 +21° 29' 01.10" 1.000E-01 0.500 F 0.300 -0.754 21.2 R 0.70 0.51 o 691 1.54 Yes Yes
2019TB4 O C K 2019-10-17.38732 1.000E-05 00:57:42.180 1.500E-01 0.500 F -0.266 1.250 -00° 14' 05.20" 1.000E-01 0.500 F 0.198 0.224 o 691 2.74 Yes No
2019SU3 O C K 2019-10-17.39403 1.000E-05 01:12:23.240 1.500E-01 0.500 F -0.200 0.300 +21° 28' 28.10" 1.000E-01 0.500 F 0.363 -0.169 20.6 R 0.70 0.11 o 691 0.70 Yes Yes
2018PK21 O C K 2019-10-17.40031 1.000E-05 23:50:52.420 1.500E-01 0.500 F -0.112 0.557 +21° 28' 27.10" 1.000E-01 0.500 F 0.300 0.545 20.7 R 0.70 0.01 o 691 1.59 Yes Yes
2019SU3 O C K 2019-10-17.41508 1.000E-05 01:12:23.600 1.500E-01 0.500 F -0.200 0.004 +21° 28' 35.00" 1.000E-01 0.500 F 0.363 -0.200 21.0 R 0.70 0.51 o 691 0.40 Yes Yes
2019OJ O C K 2019-10-17.49376 1.000E-05 10:55:04.400 1.500E-01 0.500 F 0.142 -0.239 +23° 55' 05.80" 1.000E-01 0.500 F 0.224 0.156 21.5 R 0.70 0.45 o 691 0.63 Yes Yes
2019OJ O C K 2019-10-17.50823 1.000E-05 10:55:05.650 1.500E-01 0.500 F 0.135 -0.173 +23° 54' 34.10" 1.000E-01 0.500 F 0.180 -0.155 o 691 0.50 Yes No
2019OL1 O C K 2019-10-18.15788 1.000E-05 20:40:16.740 1.500E-01 0.500 F 0.071 -0.562 +17° 56' 32.50" 1.000E-01 0.500 F 0.251 -0.208 19.6 R 0.70 0.15 o 691 1.21 Yes Yes
2019OL1 O C K 2019-10-18.17514 1.000E-05 20:40:24.300 1.500E-01 0.500 F 0.071 -0.019 +17° 55' 54.00" 1.000E-01 0.500 F 0.251 -0.038 19.9 R 0.70 0.45 o 691 0.09 Yes Yes
2019OL1 O C K 2019-10-18.19232 1.000E-05 20:40:31.810 1.500E-01 0.500 F 0.071 -0.033 +17° 55' 15.40" 1.000E-01 0.500 F 0.251 0.061 19.2 R 0.70 -0.25 o 691 0.14 Yes Yes
2019LX4 O C K 2019-10-18.20475 1.000E-05 21:29:57.700 1.500E-01 0.500 F -0.032 -0.366 +09° 20' 12.60" 1.000E-01 0.500 F 0.361 -0.137 18.2 R 0.70 -0.92 o 691 0.79 Yes Yes
2019LX4 O C K 2019-10-18.21974 1.000E-05 21:30:04.680 1.500E-01 0.500 F -0.032 -0.110 +09° 20' 28.00" 1.000E-01 0.500 F 0.361 -0.058 18.8 R 0.70 -0.32 o 691 0.25 Yes Yes
2019LX4 O C K 2019-10-18.23462 1.000E-05 21:30:11.630 1.500E-01 0.500 F -0.032 0.231 +09° 20' 43.30" 1.000E-01 0.500 F 0.361 0.117 18.6 R 0.70 -0.52 o 691 0.53 Yes Yes
2019SV5 O C K 2019-10-18.24579 1.000E-05 23:20:40.630 1.500E-01 0.500 F -0.152 0.151 +01° 24' 37.90" 1.000E-01 0.500 F 0.417 0.187 21.1 R 0.70 0.68 o 691 0.49 Yes Yes
2019TL O C K 2019-10-18.25253 1.000E-05 23:23:12.930 1.500E-01 0.500 F -0.125 -0.233 -02° 58' 58.30" 1.000E-01 0.500 F 0.249 0.287 19.9 R 0.70 -0.20 o 691 0.76 Yes Yes
2019TR2 O C K 2019-10-18.25904 1.000E-05 23:58:30.890 1.500E-01 0.500 F -0.253 -0.066 -07° 28' 27.10" 1.000E-01 0.500 F 0.265 0.268 19.0 R 0.70 -0.39 o 691 0.56 Yes Yes
2019SV5 O C K 2019-10-18.26242 1.000E-05 23:20:41.630 1.500E-01 0.500 F -0.152 -0.054 +01° 25' 22.90" 1.000E-01 0.500 F 0.417 -0.035 20.9 R 0.70 0.48 o 691 0.13 Yes Yes
2019TL O C K 2019-10-18.26916 1.000E-05 23:23:22.070 1.500E-01 0.500 F -0.125 0.121 -02° 59' 24.80" 1.000E-01 0.500 F 0.249 -0.047 20.2 R 0.70 0.10 o 691 0.27 Yes Yes
2019TR2 O C K 2019-10-18.27566 1.000E-05 23:58:22.500 1.500E-01 0.500 F -0.253 0.005 -07° 27' 14.60" 1.000E-01 0.500 F 0.265 -0.017 18.8 R 0.70 -0.59 o 691 0.04 Yes Yes
2019SV5 O C K 2019-10-18.27901 1.000E-05 23:20:42.630 1.500E-01 0.500 F -0.152 -0.315 +01° 26' 08.50" 1.000E-01 0.500 F 0.417 0.472 o 691 1.15 Yes No
2019TL O C K 2019-10-18.28574 1.000E-05 23:23:31.180 1.500E-01 0.500 F -0.217 0.232 -02° 59' 50.90" 1.000E-01 0.500 F 0.284 -0.158 20.1 R 0.70 0.00 o 691 0.58 Yes Yes
2019TR2 O C K 2019-10-18.29225 1.000E-05 23:58:14.110 1.500E-01 0.500 F -0.253 -0.082 -07° 26' 02.10" 1.000E-01 0.500 F 0.265 -0.462 19.0 R 0.70 -0.39 o 691 0.96 Yes Yes
2019SE9 O C K 2019-10-18.30683 1.000E-05 00:30:23.830 1.500E-01 0.500 F -0.121 0.217 +02° 53' 11.80" 1.000E-01 0.500 F 0.246 0.239 19.6 R 0.70 0.23 o 691 0.65 Yes Yes
2019TL6 O C K 2019-10-18.31034 1.000E-05 01:05:27.770 1.500E-01 0.500 F -0.193 -0.006 +07° 52' 53.50" 1.000E-01 0.500 F 0.382 0.871 19.4 R 0.70 0.12 o 691 1.79 Yes Yes
2019TA2 O C K 2019-10-18.31872 1.000E-05 00:18:56.240 1.500E-01 0.500 F -0.294 -0.430 -14° 52' 47.00" 1.000E-01 0.500 F 0.241 -0.047 19.7 R 0.70 -0.19 o 691 0.91 Yes Yes
2019SE9 O C K 2019-10-18.33010 1.000E-05 00:30:32.160 1.500E-01 0.500 F -0.175 -0.299 +02° 52' 35.50" 1.000E-01 0.500 F 0.310 0.125 19.7 R 0.70 0.32 o 691 0.66 Yes Yes
2019TL6 O C K 2019-10-18.33361 1.000E-05 01:05:18.910 1.500E-01 0.500 F -0.193 -0.259 +07° 49' 45.40" 1.000E-01 0.500 F 0.382 0.089 19.5 R 0.70 0.21 o 691 0.56 Yes Yes
2019TA2 O C K 2019-10-18.34198 1.000E-05 00:18:37.860 1.500E-01 0.500 F -0.294 -0.942 -14° 51' 30.10" 1.000E-01 0.500 F 0.241 0.916 19.3 R 0.70 -0.59 o 691 2.75 Yes Yes
2019SE9 O C K 2019-10-18.35337 1.000E-05 00:30:40.660 1.500E-01 0.500 F -0.175 0.620 +02° 51' 58.60" 1.000E-01 0.500 F 0.310 -0.459 19.3 R 0.70 -0.08 o 691 1.57 Yes Yes
2019TL6 O C K 2019-10-18.35688 1.000E-05 01:05:10.100 1.500E-01 0.500 F -0.193 -0.028 +07° 46' 38.00" 1.000E-01 0.500 F 0.382 0.210 19.3 R 0.70 0.01 o 691 0.43 Yes Yes
2019TO O C K 2019-10-19.11632 1.000E-05 21:44:05.980 1.500E-01 0.500 F -0.152 0.447 -13° 31' 14.10" 1.000E-01 0.500 F 0.149 -0.788 20.6 R 0.70 -0.02 o 691 1.86 Yes Yes
2019TO O C K 2019-10-19.12233 1.000E-05 21:44:06.800 1.500E-01 0.500 F -0.152 -0.361 -13° 31' 41.60" 1.000E-01 0.500 F 0.149 0.304 20.6 R 0.70 -0.02 o 691 0.96 Yes Yes
2019TO O C K 2019-10-19.12834 1.000E-05 21:44:07.700 1.500E-01 0.500 F -0.152 0.001 -13° 32' 11.00" 1.000E-01 0.500 F 0.149 -0.516 20.8 R 0.70 0.18 o 691 1.06 Yes Yes
2019SU3 O C K 2019-10-19.13914 1.000E-05 01:15:05.600 1.500E-01 0.612 F -0.208 0.212 +21° 44' 41.90" 1.000E-01 0.612 F 0.379 0.066 21.2 R 0.70 0.54 o 691 0.37 Yes Yes
2019SU3 O C 2019-10-19.13914 1.000E-05 01:15:05.610 1.500E-01 0.612 F -0.208 0.351 +21° 44' 42.50" 1.000E-01 0.612 F 0.379 0.666 21.5 V 0.70 0.44 o 691 1.24 Yes Yes
2019SU3 O C K 2019-10-19.14587 1.000E-05 01:15:05.720 1.500E-01 0.612 F -0.208 -0.216 +21° 44' 47.40" 1.000E-01 0.612 F 0.379 -0.109 21.7 R 0.70 1.04 o 691 0.40 Yes Yes
2019SU3 O C 2019-10-19.14812 1.000E-05 01:15:05.760 1.500E-01 0.612 F -0.208 -0.300 +21° 44' 49.50" 1.000E-01 0.612 F 0.379 0.113 21.2 V 0.70 0.14 o 691 0.53 Yes Yes
2019SU3 O C K 2019-10-19.15261 1.000E-05 01:15:05.810 1.500E-01 0.612 F -0.208 -0.797 +21° 44' 52.80" 1.000E-01 0.612 F 0.379 -0.306 21.0 R 0.70 0.34 o 691 1.41 Yes Yes
2019SU3 O C 2019-10-19.15710 1.000E-05 01:15:05.890 1.500E-01 0.612 F -0.208 -0.761 +21° 44' 56.70" 1.000E-01 0.612 F 0.379 -0.085 21.2 V 0.70 0.14 o 691 1.26 Yes Yes
2019TP1 O C K 2019-10-19.16120 1.000E-05 23:09:42.810 1.500E-01 0.500 F -0.200 -0.191 -04° 55' 35.00" 1.000E-01 0.500 F 0.241 0.069 o 691 0.41 Yes No
2019TP1 O C K 2019-10-19.17050 1.000E-05 23:09:41.310 1.500E-01 0.500 F -0.200 0.615 -04° 55' 21.50" 1.000E-01 0.500 F 0.241 -0.033 o 691 1.24 Yes No
2019TP1 O C K 2019-10-19.17980 1.000E-05 23:09:39.720 1.500E-01 0.500 F -0.200 0.080 -04° 55' 07.50" 1.000E-01 0.500 F 0.241 0.360 o 691 0.74 Yes No
2019TR2 O C 2019-10-19.19016 1.000E-05 23:50:43.800 1.500E-01 0.500 F -0.288 -0.360 -06° 15' 28.90" 1.000E-01 0.500 F 0.405 0.067 19.9 V 0.70 0.22 o 691 0.74 Yes Yes
2019TR2 O C 2019-10-19.19451 1.000E-05 23:50:41.340 1.500E-01 0.500 F -0.288 -0.156 -06° 15' 07.10" 1.000E-01 0.500 F 0.405 -0.109 20.6 V 0.70 0.92 o 691 0.39 Yes Yes
2019TR2 O C 2019-10-19.19885 1.000E-05 23:50:38.880 1.500E-01 0.500 F -0.288 -0.004 -06° 14' 44.90" 1.000E-01 0.500 F 0.405 0.145 19.8 V 0.70 0.12 o 691 0.30 Yes Yes
2019SV5 O C K 2019-10-19.20213 1.000E-05 23:21:49.370 1.500E-01 0.500 F -0.152 0.035 +02° 07' 36.50" 1.000E-01 0.500 F 0.417 0.423 21.2 R 0.70 0.74 o 691 0.86 Yes Yes
2019SV5 O C K 2019-10-19.20678 1.000E-05 23:21:49.680 1.500E-01 0.500 F -0.152 0.330 +02° 07' 48.70" 1.000E-01 0.500 F 0.417 0.202 20.9 R 0.70 0.44 o 691 0.79 Yes Yes
2019SV5 O C K 2019-10-19.21143 1.000E-05 23:21:49.950 1.500E-01 0.500 F -0.097 -0.029 +02° 08' 01.20" 1.000E-01 0.500 F 0.374 0.325 20.5 R 0.70 0.04 o 691 0.66 Yes Yes
2019TL O C K 2019-10-19.21687 1.000E-05 23:32:31.950 1.500E-01 0.500 F -0.277 -0.025 -03° 23' 49.30" 1.000E-01 0.500 F 0.388 -0.144 20.2 R 0.70 0.10 o 691 0.30 Yes Yes
2019TL O C K 2019-10-19.22288 1.000E-05 23:32:35.210 1.500E-01 0.500 F -0.277 0.100 -03° 23' 58.50" 1.000E-01 0.500 F 0.388 -0.289 19.7 R 0.70 -0.40 o 691 0.63 Yes Yes
2019TL O C K 2019-10-19.22890 1.000E-05 23:32:38.470 1.500E-01 0.500 F -0.277 0.142 -03° 24' 07.70" 1.000E-01 0.500 F 0.388 -0.428 20.6 R 0.70 0.50 o 691 0.92 Yes Yes
2019TZ1 O C K 2019-10-19.44568 1.000E-05 03:33:44.840 1.500E-01 0.500 F -0.175 -0.083 -24° 55' 51.50" 1.000E-01 0.500 F 0.042 -0.205 20.9 R 0.70 0.51 o 691 0.45 Yes Yes
2019TZ1 O C K 2019-10-19.46283 1.000E-05 03:33:51.150 1.500E-01 0.500 F -0.175 0.159 -24° 56' 13.70" 1.000E-01 0.500 F 0.042 0.460 21.1 R 0.70 0.71 o 691 0.99 Yes Yes
2019TZ1 O C K 2019-10-19.47997 1.000E-05 03:33:57.510 1.500E-01 0.500 F -0.175 0.708 -24° 56' 36.20" 1.000E-01 0.500 F 0.042 0.480 21.1 R 0.70 0.71 o 691 1.75 Yes Yes
2019TO O C K 2019-10-20.07693 1.000E-05 21:46:38.980 1.500E-01 0.500 F -0.157 -0.035 -14° 46' 37.80" 1.000E-01 0.500 F 0.161 0.905 o 691 1.86 Yes No
2019TO O C K 2019-10-20.08483 1.000E-05 21:46:40.180 1.500E-01 0.500 F -0.157 0.131 -14° 47' 15.80" 1.000E-01 0.500 F 0.161 -0.095 o 691 0.33 Yes No
2019TO O C K 2019-10-20.09406 1.000E-05 21:46:41.560 1.500E-01 0.500 F -0.157 0.028 -14° 47' 58.80" 1.000E-01 0.500 F 0.161 0.107 o 691 0.23 Yes No
2019UK O C K 2019-10-20.10382 1.000E-05 21:16:24.530 1.500E-01 0.500 F -0.001 -0.069 +05° 06' 56.30" 1.000E-01 0.500 F 0.293 -0.186 o 691 0.40 Yes No
2019UK O C K 2019-10-20.11313 1.000E-05 21:16:24.170 1.500E-01 0.500 F -0.001 -0.136 +05° 06' 08.50" 1.000E-01 0.500 F 0.293 -0.356 o 691 0.77 Yes No
2019UK O C K 2019-10-20.12243 1.000E-05 21:16:23.850 1.500E-01 0.500 F -0.001 0.385 +05° 05' 22.00" 1.000E-01 0.500 F 0.293 0.723 o 691 1.65 Yes No
2019ST9 O C K 2019-10-20.13412 1.000E-05 23:20:51.600 1.500E-01 0.500 F -0.331 0.242 -11° 13' 58.00" 1.000E-01 0.500 F 0.427 -0.423 o 691 0.98 Yes No
2019ST9 O C K 2019-10-20.14188 1.000E-05 23:20:50.430 1.500E-01 0.500 F -0.331 0.702 -11° 14' 31.00" 1.000E-01 0.500 F 0.427 -0.209 o 691 1.48 Yes No
2019SV5 O C K 2019-10-20.14557 1.000E-05 23:22:58.940 1.500E-01 0.500 F -0.097 -0.028 +02° 49' 12.70" 1.000E-01 0.500 F 0.374 0.210 o 691 0.43 Yes No
2019ST9 O C K 2019-10-20.14962 1.000E-05 23:20:49.170 1.500E-01 0.500 F -0.331 -0.193 -11° 15' 04.50" 1.000E-01 0.500 F 0.427 -0.587 o 691 1.25 Yes No
2019SV5 O C K 2019-10-20.15331 1.000E-05 23:22:59.460 1.500E-01 0.500 F -0.097 0.241 +02° 49' 32.70" 1.000E-01 0.500 F 0.374 -0.097 o 691 0.53 Yes No
2019SV8 O C K 2019-10-20.21876 1.000E-05 23:59:50.040 1.500E-01 0.500 F -0.152 -0.001 +29° 25' 59.70" 1.000E-01 0.500 F 0.241 -0.150 18.5 R 0.70 -1.56 o 691 0.30 Yes Yes
2019SV8 O C K 2019-10-20.22342 1.000E-05 23:59:48.610 1.500E-01 0.500 F -0.152 0.068 +29° 26' 02.50" 1.000E-01 0.500 F 0.241 -0.028 18.8 R 0.70 -1.26 o 691 0.15 Yes Yes
2019SV8 O C K 2019-10-20.22806 1.000E-05 23:59:47.170 1.500E-01 0.500 F -0.152 -0.070 +29° 26' 05.00" 1.000E-01 0.500 F 0.241 -0.185 20.6 R 0.70 0.54 o 691 0.40 Yes Yes
2019TR2 O C K 2019-10-20.23442 1.000E-05 23:40:40.320 1.500E-01 0.500 F -0.322 -0.138 -04° 39' 27.20" 1.000E-01 0.500 F 0.413 -0.044 19.2 R 0.70 0.03 o 691 0.29 Yes Yes
2019TR2 O C K 2019-10-20.23768 1.000E-05 23:40:38.180 1.500E-01 0.500 F -0.322 -0.172 -04° 39' 07.60" 1.000E-01 0.500 F 0.413 -0.037 19.0 R 0.70 -0.16 o 691 0.36 Yes Yes
2019TR2 O C K 2019-10-20.24094 1.000E-05 23:40:36.060 1.500E-01 0.500 F -0.322 0.104 -04° 38' 47.80" 1.000E-01 0.500 F 0.413 0.157 18.9 R 0.70 -0.26 o 691 0.38 Yes Yes
1998SG36 O C 2019-10-20.24505 1.000E-05 23:44:32.530 1.500E-01 0.500 F -0.374 0.048 -04° 03' 34.70" 1.000E-01 0.500 F 0.361 -0.146 19.0 V 0.70 0.38 o 691 0.31 Yes Yes
2019TL O C K 2019-10-20.24505 1.000E-05 23:42:18.370 1.500E-01 0.500 F -0.374 0.546 -03° 48' 55.20" 1.000E-01 0.500 F 0.361 -0.079 20.3 R 0.70 0.20 o 691 1.13 Yes Yes
2019TL O C K 2019-10-20.24867 1.000E-05 23:42:20.250 1.500E-01 0.500 F -0.374 -0.214 -03° 49' 00.20" 1.000E-01 0.500 F 0.361 0.042 19.7 R 0.70 -0.40 o 691 0.45 Yes Yes
1998SG36 O C 2019-10-20.24987 1.000E-05 23:44:32.320 1.500E-01 0.500 F -0.374 -0.064 -04° 03' 39.70" 1.000E-01 0.500 F 0.361 -0.339 18.7 V 0.70 0.08 o 691 0.69 Yes Yes
2019TL O C K 2019-10-20.25228 1.000E-05 23:42:22.170 1.500E-01 0.500 F -0.374 -0.302 -03° 49' 05.50" 1.000E-01 0.500 F 0.361 -0.156 20.3 R 0.70 0.20 o 691 0.70 Yes Yes
1998SG36 O C 2019-10-20.25468 1.000E-05 23:44:32.140 1.500E-01 0.500 F -0.374 0.265 -04° 03' 44.30" 1.000E-01 0.500 F 0.361 -0.144 18.9 V 0.70 0.28 o 691 0.60 Yes Yes
2019SK7 O C K 2019-10-20.25715 1.000E-05 00:23:00.220 1.500E-01 0.500 F -0.255 -0.324 -11° 29' 20.20" 1.000E-01 0.500 F 0.255 -0.245 20.1 R 0.70 -0.17 o 691 0.85 Yes Yes
2019SK7 O C K 2019-10-20.26076 1.000E-05 00:22:59.570 1.500E-01 0.500 F -0.255 -0.085 -11° 29' 42.30" 1.000E-01 0.500 F 0.255 0.105 20.5 R 0.70 0.23 o 691 0.28 Yes Yes
2019SK7 O C K 2019-10-20.26437 1.000E-05 00:22:58.910 1.500E-01 0.500 F -0.255 0.004 -11° 30' 05.00" 1.000E-01 0.500 F 0.255 -0.152 20.6 R 0.70 0.33 o 691 0.32 Yes Yes
2019TL6 O C K 2019-10-20.26977 1.000E-05 00:53:33.550 1.500E-01 0.500 F -0.268 0.042 +03° 25' 57.50" 1.000E-01 0.500 F 0.287 0.270 20.5 R 0.70 1.01 o 691 0.56 Yes Yes
2019TL6 O C K 2019-10-20.27304 1.000E-05 00:53:32.290 1.500E-01 0.500 F -0.268 -0.086 +03° 25' 30.10" 1.000E-01 0.500 F 0.287 -0.073 20.0 R 0.70 0.51 o 691 0.23 Yes Yes
2019TL6 O C K 2019-10-20.27630 1.000E-05 00:53:31.060 1.500E-01 0.500 F -0.268 0.179 +03° 25' 03.20" 1.000E-01 0.500 F 0.287 0.003 20.1 R 0.70 0.61 o 691 0.36 Yes Yes
2019TB4 O C K 2019-10-20.28049 1.000E-05 01:05:18.820 1.500E-01 0.500 F -0.329 -0.198 -04° 48' 08.30" 1.000E-01 0.500 F 0.301 0.484 20.7 R 0.70 -0.04 o 691 1.15 Yes Yes
2019TB4 O C K 2019-10-20.29367 1.000E-05 01:05:20.530 1.500E-01 0.500 F -0.329 -0.138 -04° 49' 19.10" 1.000E-01 0.500 F 0.301 -0.113 21.7 R 0.70 0.96 o 691 0.39 Yes Yes
2019TB4 O C K 2019-10-20.30685 1.000E-05 01:05:22.240 1.500E-01 0.500 F -0.329 -0.105 -04° 50' 28.90" 1.000E-01 0.500 F 0.301 0.216 21.4 R 0.70 0.66 o 691 0.53 Yes Yes
2019TC4 O C K 2019-10-20.32091 1.000E-05 01:26:18.230 1.500E-01 0.500 F -0.242 -0.215 +06° 33' 04.10" 1.000E-01 0.500 F 0.293 -0.116 19.5 R 0.70 0.31 o 691 0.49 Yes Yes
2019TC4 O C K 2019-10-20.32535 1.000E-05 01:26:18.680 1.500E-01 0.500 F -0.242 -0.162 +06° 32' 17.00" 1.000E-01 0.500 F 0.293 0.262 o 691 0.64 Yes No
2019TC4 O C K 2019-10-20.32861 1.000E-05 01:26:19.000 1.500E-01 0.500 F -0.242 -0.285 +06° 31' 41.80" 1.000E-01 0.500 F 0.293 -0.074 19.5 R 0.70 0.31 o 691 0.59 Yes Yes
2019TZ1 O C K 2019-10-20.33301 1.000E-05 03:39:43.150 1.500E-01 0.500 F -0.266 0.307 -25° 16' 11.80" 1.000E-01 0.500 F 0.119 -0.376 o 691 0.99 Yes No
2019TZ1 O C K 2019-10-20.34745 1.000E-05 03:39:48.460 1.500E-01 0.500 F -0.266 -0.348 -25° 16' 31.60" 1.000E-01 0.500 F 0.119 -0.181 o 691 0.81 Yes No
2019TZ1 O C K 2019-10-20.36188 1.000E-05 03:39:53.840 1.500E-01 0.500 F -0.266 0.113 -25° 16' 51.20" 1.000E-01 0.500 F 0.119 -0.063 o 691 0.27 Yes No
2019RN4 O C 2019-10-20.37748 1.000E-05 04:32:08.160 1.500E-01 0.500 F -0.193 -0.091 -25° 38' 47.00" 1.000E-01 0.500 F 0.280 0.027 20.1 V 0.70 0.14 o 691 0.19 Yes Yes
2019RN4 O C 2019-10-20.38508 1.000E-05 04:32:07.400 1.500E-01 0.500 F -0.193 -0.276 -25° 38' 30.60" 1.000E-01 0.500 F 0.280 0.104 19.9 V 0.70 -0.06 o 691 0.59 Yes Yes
2019RN4 O C 2019-10-20.39267 1.000E-05 04:32:06.650 1.500E-01 0.500 F -0.193 -0.328 -25° 38' 14.10" 1.000E-01 0.500 F 0.280 0.282 19.8 V 0.70 -0.16 o 691 0.87 Yes Yes
2019SF2 O C K 2019-10-21.16382 1.000E-05 21:47:42.500 1.500E-01 0.500 F 0.024 0.141 +10° 14' 37.30" 1.000E-01 0.500 F 0.196 0.191 20.5 R 0.70 -0.37 o 691 0.48 Yes Yes
2019SF2 O C K 2019-10-21.17472 1.000E-05 21:47:42.700 1.500E-01 0.500 F 0.024 -0.092 +10° 14' 40.30" 1.000E-01 0.500 F 0.196 0.033 19.6 R 0.70 -1.27 o 691 0.20 Yes Yes
2019SF2 O C K 2019-10-21.18562 1.000E-05 21:47:42.920 1.500E-01 0.500 F 0.024 -0.089 +10° 14' 43.30" 1.000E-01 0.500 F 0.196 -0.088 19.3 R 0.70 -1.57 o 691 0.25 Yes Yes
2019LX4 O C 2019-10-21.19617 1.000E-05 21:53:32.370 1.500E-01 0.500 F 0.105 -0.087 +10° 07' 46.70" 1.000E-01 0.500 F 0.190 0.030 19.7 V 0.70 0.15 o 691 0.19 Yes Yes
2019LX4 O C 2019-10-21.20098 1.000E-05 21:53:34.500 1.500E-01 0.500 F 0.105 0.237 +10° 07' 49.90" 1.000E-01 0.500 F 0.190 -0.806 19.7 V 0.70 0.15 o 691 1.69 Yes Yes
2019LX4 O C 2019-10-21.20579 1.000E-05 21:53:36.570 1.500E-01 0.500 F 0.105 -0.339 +10° 07' 54.60" 1.000E-01 0.500 F 0.190 -0.132 19.3 V 0.70 -0.25 o 691 0.74 Yes Yes
2019TP1 O C K 2019-10-21.20901 1.000E-05 23:04:23.370 1.500E-01 0.500 F -0.124 -0.144 -04° 05' 27.50" 1.000E-01 0.500 F 0.321 0.121 o 691 0.38 Yes No
2019TP1 O C K 2019-10-21.21675 1.000E-05 23:04:22.160 1.500E-01 0.500 F -0.124 -0.111 -04° 05' 17.10" 1.000E-01 0.500 F 0.321 -0.878 o 691 1.78 Yes No
2019TP1 O C K 2019-10-21.22451 1.000E-05 23:04:20.970 1.500E-01 0.500 F -0.124 0.258 -04° 05' 04.30" 1.000E-01 0.500 F 0.321 0.490 o 691 1.11 Yes No
2019TR2 O C K 2019-10-21.23383 1.000E-05 23:29:33.900 1.500E-01 0.500 F -0.203 -0.744 -02° 50' 41.20" 1.000E-01 0.500 F 0.430 0.246 19.1 R 0.70 0.04 o 691 1.59 Yes Yes
2019TR2 O C K 2019-10-21.23709 1.000E-05 23:29:31.480 1.500E-01 0.500 F -0.203 -0.101 -02° 50' 18.40" 1.000E-01 0.500 F 0.430 -0.082 19.2 R 0.70 0.14 o 691 0.26 Yes Yes
2019TR2 O C K 2019-10-21.24035 1.000E-05 23:29:29.020 1.500E-01 0.500 F -0.203 -0.046 -02° 49' 55.30" 1.000E-01 0.500 F 0.430 -0.124 19.1 R 0.70 0.04 o 691 0.27 Yes Yes
2019SK7 O C K 2019-10-21.25417 1.000E-05 00:20:15.210 1.500E-01 0.500 F -0.149 0.212 -13° 11' 44.70" 1.000E-01 0.500 F 0.220 -0.165 20.3 R 0.70 -0.04 o 691 0.56 Yes Yes
2019SK7 O C K 2019-10-21.25778 1.000E-05 00:20:14.550 1.500E-01 0.500 F -0.149 0.178 -13° 12' 06.50" 1.000E-01 0.500 F 0.220 0.039 21.1 R 0.70 0.75 o 691 0.38 Yes Yes
2019SK7 O C K 2019-10-21.26138 1.000E-05 00:20:13.900 1.500E-01 0.500 F -0.149 0.261 -13° 12' 28.30" 1.000E-01 0.500 F 0.220 0.175 20.4 R 0.70 0.05 o 691 0.66 Yes Yes
2019SU3 O C H 2019-10-21.26846 1.000E-05 01:17:25.270 1.500E-01 0.500 F -0.208 -0.170 +21° 59' 43.20" 1.000E-01 0.500 F 0.379 -0.038 21.3 R 0.70 0.44 o 691 0.35 Yes Yes
2019SU3 O C H 2019-10-21.27209 1.000E-05 01:17:25.250 1.500E-01 0.500 F -0.208 0.260 +21° 59' 44.40" 1.000E-01 0.500 F 0.379 -0.172 21.1 R 0.70 0.24 o 691 0.63 Yes Yes
2019SU3 O C H 2019-10-21.27573 1.000E-05 01:17:25.220 1.500E-01 0.500 F -0.208 0.559 +21° 59' 45.40" 1.000E-01 0.500 F 0.379 -0.474 21.0 R 0.70 0.14 o 691 1.48 Yes Yes
2019UG O C 2019-10-21.28109 1.000E-05 02:06:12.910 1.500E-01 0.500 F -0.285 -0.622 +17° 57' 15.60" 1.000E-01 0.500 F 0.176 -0.002 20.4 V 0.70 0.07 o 691 1.26 Yes Yes
2019UG O C 2019-10-21.28590 1.000E-05 02:06:13.920 1.500E-01 0.500 F -0.285 -0.276 +17° 56' 50.10" 1.000E-01 0.500 F 0.176 0.239 20.5 V 0.70 0.17 o 691 0.74 Yes Yes
2019UG O C 2019-10-21.29071 1.000E-05 02:06:14.910 1.500E-01 0.500 F -0.285 -0.103 +17° 56' 24.00" 1.000E-01 0.500 F 0.176 -0.099 20.1 V 0.70 -0.24 o 691 0.29 Yes Yes
2019TF2 O C K 2019-10-21.30671 1.000E-05 00:19:31.260 1.500E-01 0.500 F -0.226 0.053 -26° 30' 39.20" 1.000E-01 0.500 F 0.401 0.177 o 691 0.37 Yes No
2019TF2 O C K 2019-10-21.31911 1.000E-05 00:19:29.490 1.500E-01 0.500 F -0.226 0.565 -26° 31' 21.20" 1.000E-01 0.500 F 0.401 -0.274 o 691 1.26 Yes No
2019TF2 O C K 2019-10-21.33152 1.000E-05 00:19:27.730 1.500E-01 0.500 F -0.226 0.826 -26° 32' 02.20" 1.000E-01 0.500 F 0.401 -0.048 o 691 1.66 Yes No
2019SE9 O C 2019-10-21.34475 1.000E-05 00:49:12.940 1.500E-01 0.500 F -0.146 0.057 +01° 44' 06.40" 1.000E-01 0.500 F 0.427 0.036 19.8 V 0.70 -0.21 o 691 0.14 Yes Yes
2019SE9 O C 2019-10-21.34607 1.000E-05 00:49:13.310 1.500E-01 0.500 F -0.146 -0.146 +01° 44' 04.70" 1.000E-01 0.500 F 0.427 -0.072 20.1 V 0.70 0.09 o 691 0.33 Yes Yes
2019SE9 O C 2019-10-21.34739 1.000E-05 00:49:13.700 1.500E-01 0.500 F -0.146 -0.054 +01° 44' 03.10" 1.000E-01 0.500 F 0.427 -0.080 20.1 V 0.70 0.09 o 691 0.19 Yes Yes
2018RU3 O C K 2019-10-21.35127 1.000E-05 04:04:48.870 1.500E-01 0.500 F -0.276 -0.139 -06° 29' 00.90" 1.000E-01 0.500 F 0.181 -0.079 21.0 R 0.70 -0.21 o 691 0.32 Yes Yes
2018RU3 O C K 2019-10-21.36687 1.000E-05 04:04:47.160 1.500E-01 0.500 F -0.276 -0.195 -06° 29' 45.00" 1.000E-01 0.500 F 0.181 -0.359 21.1 R 0.70 -0.11 o 691 0.83 Yes Yes
2018RU3 O C K 2019-10-21.38237 1.000E-05 04:04:45.470 1.500E-01 0.500 F -0.276 -0.031 -06° 30' 28.00" 1.000E-01 0.500 F 0.181 0.156 21.4 R 0.70 0.19 o 691 0.32 Yes Yes
2019SM7 O C K 2019-10-21.40036 1.000E-05 01:04:27.920 1.500E-01 0.500 F -0.246 -0.147 -01° 00' 35.30" 1.000E-01 0.500 F 0.205 -0.424 22.3 R 0.70 0.92 o 691 0.96 Yes Yes
2019SM7 O C K 2019-10-21.40967 1.000E-05 01:04:26.440 1.500E-01 0.500 F -0.246 -0.189 -01° 00' 32.90" 1.000E-01 0.500 F 0.205 -0.143 22.1 R 0.70 0.72 o 691 0.51 Yes Yes
2019SM7 O C K 2019-10-21.41897 1.000E-05 01:04:24.980 1.500E-01 0.500 F -0.246 0.004 -01° 00' 29.70" 1.000E-01 0.500 F 0.205 0.939 20.9 R 0.70 -0.48 o 691 1.98 Yes Yes
2004EO20 O C K 2019-10-21.49372 1.000E-05 03:33:54.100 1.500E-01 0.500 F -0.148 -0.215 +07° 58' 49.90" 1.000E-01 0.500 F 0.350 0.267 21.2 R 0.70 0.30 o 691 0.70 Yes Yes
2004EO20 O C K 2019-10-21.50612 1.000E-05 03:33:53.180 1.500E-01 0.500 F -0.148 0.159 +07° 58' 34.70" 1.000E-01 0.500 F 0.350 0.102 20.4 R 0.70 -0.50 o 691 0.38 Yes Yes
2016WJ1 O C K 2019-10-22.15410 1.000E-05 01:48:51.420 1.500E-01 0.500 F -0.195 -0.180 +04° 56' 39.60" 1.000E-01 0.500 F 0.193 0.256 22.2 R 0.70 0.69 o 691 0.63 Yes Yes
2016WJ1 O C K 2019-10-22.16773 1.000E-05 01:48:49.540 1.500E-01 0.500 F -0.195 -0.104 +04° 56' 29.00" 1.000E-01 0.500 F 0.193 -0.055 22.6 R 0.70 1.09 o 691 0.24 Yes Yes
2016WJ1 O C K 2019-10-22.18126 1.000E-05 01:48:47.660 1.500E-01 0.500 F -0.195 -0.168 +04° 56' 19.20" 1.000E-01 0.500 F 0.193 0.364 22.2 R 0.70 0.69 o 691 0.80 Yes Yes
2019TF2 O C K 2019-10-22.19630 1.000E-05 00:18:22.920 1.500E-01 0.500 F -0.232 0.363 -27° 22' 29.00" 1.000E-01 0.500 F 0.512 0.203 20.8 R 0.70 -0.62 o 691 0.83 Yes Yes
2019TF2 O C K 2019-10-22.21224 1.000E-05 00:18:20.500 1.500E-01 0.500 F -0.232 -0.015 -27° 23' 25.70" 1.000E-01 0.500 F 0.512 0.119 o 691 0.24 Yes No
2019TX6 O C K 2019-10-22.28364 1.000E-05 05:31:52.480 1.500E-01 0.500 F -0.211 -0.922 +18° 08' 11.80" 1.000E-01 0.500 F 0.193 0.193 20.3 R 0.70 -0.13 o 691 1.94 Yes Yes
2019TX6 O C K 2019-10-22.28821 1.000E-05 05:31:54.420 1.500E-01 0.500 F -0.211 0.025 +18° 08' 05.80" 1.000E-01 0.500 F 0.193 0.160 20.4 R 0.70 -0.03 o 691 0.33 Yes Yes
2019TX6 O C K 2019-10-22.29279 1.000E-05 05:31:56.290 1.500E-01 0.500 F -0.211 -0.058 +18° 07' 59.70" 1.000E-01 0.500 F 0.193 0.048 20.8 R 0.70 0.37 o 691 0.15 Yes Yes
2019SJ7 O C K 2019-10-22.29918 1.000E-05 03:59:00.770 1.500E-01 0.500 F -0.279 0.225 +15° 36' 32.80" 1.000E-01 0.500 F 0.171 -0.424 22.1 R 0.70 0.68 o 691 1.07 Yes Yes
2019SJ7 O C K 2019-10-22.30621 1.000E-05 03:59:00.870 1.500E-01 0.500 F -0.279 0.067 +15° 36' 23.00" 1.000E-01 0.500 F 0.171 -0.169 o 691 0.40 Yes No
2019SJ7 O C K 2019-10-22.31325 1.000E-05 03:59:00.960 1.500E-01 0.500 F -0.279 -0.213 +15° 36' 13.00" 1.000E-01 0.500 F 0.171 -0.090 21.4 R 0.70 -0.02 o 691 0.52 Yes Yes
2019SS5 O C K 2019-10-22.38984 1.000E-05 01:27:33.840 1.500E-01 0.500 F -0.155 0.382 +08° 43' 11.80" 1.000E-01 0.500 F 0.320 0.368 23.0 R 0.70 1.24 o 691 1.30 Yes Yes
2019SS5 O C K 2019-10-22.39910 1.000E-05 01:27:34.420 1.500E-01 0.500 F -0.155 -0.470 +08° 43' 13.50" 1.000E-01 0.500 F 0.320 0.147 22.6 R 0.70 0.84 o 691 1.21 Yes Yes
2019SS5 O C K 2019-10-22.40836 1.000E-05 01:27:35.100 1.500E-01 0.500 F -0.155 0.097 +08° 43' 14.70" 1.000E-01 0.500 F 0.320 -0.562 22.1 R 0.70 0.34 o 691 1.39 Yes Yes
2019SH7 O C K 2019-10-22.45734 1.000E-05 02:51:09.090 1.500E-01 0.500 F -0.358 0.386 +00° 19' 47.90" 1.000E-01 0.500 F 0.229 -0.127 21.6 R 0.70 0.43 o 691 0.83 Yes Yes
2019SH7 O C K 2019-10-22.46828 1.000E-05 02:51:09.090 1.500E-01 0.500 F -0.358 1.038 +00° 19' 20.00" 1.000E-01 0.500 F 0.229 0.253 20.6 R 0.70 -0.57 o 691 2.17 Yes Yes
2019SH7 O C K 2019-10-22.47920 1.000E-05 02:51:08.990 1.500E-01 0.500 F -0.358 0.093 +00° 18' 52.00" 1.000E-01 0.500 F 0.229 0.469 20.7 R 0.70 -0.47 o 691 0.97 Yes Yes
2019SH6 O C 2019-10-22.51289 1.000E-05 04:49:57.280 1.500E-01 0.500 F -0.143 -0.111 +00° 01' 54.80" 1.000E-01 0.500 F 0.200 -0.326 20.2 R 0.70 0.16 o 691 0.69 Yes Yes
2019SH6 O C 2019-10-22.51623 1.000E-05 04:49:57.670 1.500E-01 0.500 F -0.143 0.170 +00° 01' 53.40" 1.000E-01 0.500 F 0.200 0.190 20.6 R 0.70 0.56 o 691 0.51 Yes Yes
2019SH6 O C 2019-10-22.52123 1.000E-05 04:49:58.270 1.500E-01 0.500 F -0.143 0.825 +00° 01' 50.20" 1.000E-01 0.500 F 0.200 -0.142 20.1 R 0.70 0.06 o 691 1.68 Yes Yes
2019US5 O C K 2019-10-23.08084 1.000E-05 22:10:54.760 1.500E-01 0.500 F 0.069 -0.133 +29° 46' 28.10" 1.000E-01 0.500 F 0.285 0.109 20.7 R 0.70 -0.04 o 691 0.36 Yes Yes
2019US5 O C K 2019-10-23.09553 1.000E-05 22:11:00.920 1.500E-01 0.500 F 0.069 -0.040 +29° 45' 56.80" 1.000E-01 0.500 F 0.285 -0.026 20.8 R 0.70 0.06 o 691 0.10 Yes Yes
2019US5 O C K 2019-10-23.11023 1.000E-05 22:11:07.070 1.500E-01 0.500 F 0.069 0.028 +29° 45' 25.90" 1.000E-01 0.500 F 0.285 0.345 20.5 R 0.70 -0.24 o 691 0.70 Yes Yes

[1-200] [201-400] [401-600] [601-800] [801-1000] [1001-1200] [1201-1400] [1401-1600] [1601-1800] [1801-2000] [2001-2200] [2201-2400] [2401-2600] [2601-2800] [2801-3000] [3001-3200] [3201-3400] [3401-3600] [3601-3800] [3801-4000] [4001-4200] [4201-4400] [4401-4600] [4601-4800] [4801-5000] [5001-5200] [5201-5400] [5401-5600] [5601-5800] [5801-6000] [6001-6200] [6201-6400] [6401-6600] [6601-6800] [6801-7000] [7001-7200] [7201-7400] [7401-7600] [7601-7800] [7801-8000] [8001-8200] [8201-8400] [8401-8600] [8601-8800] [8801-9000] [9001-9200] [9201-9400] [9401-9600] [9601-9800] [9801-10000] [10001-10200] [10201-10400] [10401-10600] [10601-10800] [10801-11000] [11001-11200] [11201-11400] [11401-11600] [11601-11800] [11801-12000] [12001-12200] [12201-12400] [12401-12600] [12601-12800] [12801-13000] [13001-13200] [13201-13400] [13401-13600] [13601-13800] [13801-14000] [14001-14200] [14201-14400] [14401-14600] [14601-14800] [14801-15000] [15001-15200] [15201-15400] [15401-15600] [15601-15800] [15801-16000] [16001-16200] [16201-16400] [16401-16600] [16601-16800] [16801-17000] [17001-17200] [17201-17400] [17401-17600] [17601-17800] [17801-18000] [18001-18200] [18201-18400] [18401-18600] [18601-18800] [18801-19000] [19001-19200] [19201-19400] [19401-19600] [19601-19800] [19801-20000] [20001-20200] [20201-20400] [20401-20600] [20601-20800] [20801-21000] [21001-21200] [21201-21400] [21401-21600] [21601-21800] [21801-22000] [22001-22200] [22201-22400] [22401-22600] [22601-22800] [22801-23000] [23001-23200] [23201-23400] [23401-23600] [23601-23800] [23801-24000] [24001-24200] [24201-24400] [24401-24600] [24601-24800] [24801-25000] [25001-25200] [25201-25400] [25401-25600] [25601-25800] [25801-26000] [26001-26200] [26201-26400] [26401-26600] [26601-26800] [26801-27000] [27001-27200] [27201-27400] [27401-27600] [27601-27800] [27801-28000] [28001-28200] [28201-28400] [28401-28600] [28601-28800] [28801-29000] [29001-29200] [29201-29400] [29401-29600] [29601-29800] [29801-30000] [30001-30200] [30201-30400] [30401-30600] [30601-30800] [30801-31000] [31001-31200] [31201-31400] [31401-31600] [31601-31800] [31801-32000] [32001-32200] [32201-32400] [32401-32600] [32601-32800] [32801-33000] [33001-33200] [33201-33400] [33401-33600] [33601-33800] [33801-34000] [34001-34200] [34201-34400] [34401-34600] [34601-34800] [34801-35000] [35001-35200] [35201-35400] [35401-35600] [35601-35800] [35801-36000] [36001-36200] [36201-36400] [36401-36600] [36601-36800] [36801-37000] [37001-37200] [37201-37400] [37401-37600] [37601-37800] [37801-38000] [38001-38200] [38201-38400] [38401-38600] [38601-38800] [38801-39000] [39001-39200] [39201-39400] [39401-39600] [39601-39800] [39801-40000] [40001-40200] [40201-40400] [40401-40600] [40601-40800] [40801-41000] [41001-41200] [41201-41400] [41401-41600] [41601-41800] [41801-42000] [42001-42200] [42201-42400] [42401-42600] [42601-42800] [42801-43000] [43001-43200] [43201-43400] [43401-43600] [43601-43800] [43801-44000] [44001-44200] [44201-44400] [44401-44600] [44601-44800] [44801-45000] [45001-45200] [45201-45400] [45401-45600] [45601-45800] [45801-46000] [46001-46200] [46201-46400] [46401-46600] [46601-46800] [46801-47000] [47001-47200] [47201-47400] [47401-47600] [47601-47800] [47801-48000] [48001-48200] [48201-48400] [48401-48600] [48601-48800] [48801-49000] [49001-49200] [49201-49400] [49401-49600] [49601-49800] [49801-50000] [50001-50200] [50201-50388]